Time;durP1;ratioP1;P1;durP2;ratioP2;P2;SDS_P1;SDS_P2;PMS_P1;PMS_P2;Temp;Humidity;BMP_temperature;BMP_pressure;BME280_temperature;BME280_humidity;BME280_pressure;Samples;Min_cycle;Max_cycle;Signal;HPM_P1;HPM_P2
2023/01/22 00:02:21;;;;;;;71.27;46.23;;;;;;;-3.31;100.00;103201.66;5101584;27;20028;-84
2023/01/22 00:04:46;;;;;;;69.53;45.90;;;;;;;-3.32;100.00;103201.72;5094015;28;20106;-84
2023/01/22 00:07:14;;;;;;;69.03;45.90;;;;;;;-3.32;100.00;103199.91;5101279;28;20566;-90
2023/01/22 00:09:40;;;;;;;74.57;47.10;;;;;;;-3.30;100.00;103203.38;5073779;28;20157;-90
2023/01/22 00:12:06;;;;;;;72.90;46.90;;;;;;;-3.31;100.00;103209.59;5100642;28;20294;-90
2023/01/22 00:14:31;;;;;;;68.77;45.50;;;;;;;-3.34;100.00;103204.44;5079961;28;20296;-90
2023/01/22 00:16:57;;;;;;;67.27;45.53;;;;;;;-3.29;100.00;103206.88;5099015;28;20016;-84
2023/01/22 00:19:22;;;;;;;69.70;46.50;;;;;;;-3.34;100.00;103207.09;5085177;28;20142;-85
2023/01/22 00:21:48;;;;;;;70.23;46.67;;;;;;;-3.32;100.00;103207.88;5079744;28;20118;-84
2023/01/22 00:24:13;;;;;;;65.90;45.70;;;;;;;-3.27;100.00;103210.34;5070280;28;20418;-84
2023/01/22 00:26:39;;;;;;;64.43;45.47;;;;;;;-3.30;100.00;103206.03;5096924;28;20100;-84
2023/01/22 00:29:04;;;;;;;62.23;44.27;;;;;;;-3.32;100.00;103205.22;5077798;28;20036;-84
2023/01/22 00:31:30;;;;;;;67.83;47.13;;;;;;;-3.35;100.00;103194.75;5078464;28;20039;-84
2023/01/22 00:33:55;;;;;;;64.83;45.30;;;;;;;-3.28;100.00;103193.59;5090835;28;20615;-84
2023/01/22 00:36:21;;;;;;;63.10;45.37;;;;;;;-3.25;100.00;103198.75;5087458;28;20049;-85
2023/01/22 00:38:48;;;;;;;65.57;46.17;;;;;;;-3.33;100.00;103189.38;5095846;28;20514;-84
2023/01/22 00:41:14;;;;;;;68.47;46.73;;;;;;;-3.33;100.00;103184.97;5086109;28;20781;-84
2023/01/22 00:43:40;;;;;;;65.23;45.97;;;;;;;-3.22;100.00;103192.47;5076108;28;20632;-84
2023/01/22 00:46:08;;;;;;;70.83;47.77;;;;;;;-3.28;100.00;103195.38;5097219;28;20301;-84
2023/01/22 00:48:34;;;;;;;74.27;47.97;;;;;;;-3.35;100.00;103186.78;5089108;28;20066;-84
2023/01/22 00:50:59;;;;;;;43.30;20.07;;;;;;;-3.26;100.00;103189.06;5085486;28;20281;-84
2023/01/22 00:53:24;;;;;;;68.13;47.50;;;;;;;-3.28;100.00;103185.63;5077995;28;20391;-84
2023/01/22 00:55:52;;;;;;;71.00;47.73;;;;;;;-3.36;100.00;103187.72;5069515;28;20053;-84
2023/01/22 00:58:17;;;;;;;40.17;18.33;;;;;;;-3.27;100.00;103190.00;5086885;28;20036;-84
2023/01/22 01:00:43;;;;;;;64.47;45.73;;;;;;;-3.29;100.00;103181.25;5075273;28;20361;-85
2023/01/22 01:03:26;;;;;;;62.00;46.00;;;;;;;-3.30;100.00;103179.53;5088617;28;20394;-84
2023/01/22 01:06:13;;;;;;;59.53;45.40;;;;;;;-3.32;100.00;103173.41;5084138;28;20040;-84
2023/01/22 01:08:41;;;;;;;60.40;44.23;;;;;;;-3.36;100.00;103171.81;5095388;28;20277;-84
2023/01/22 01:11:10;;;;;;;59.90;45.63;;;;;;;-3.38;100.00;103173.69;5084603;28;20312;-84
2023/01/22 01:13:37;;;;;;;35.53;15.90;;;;;;;-3.32;100.00;103175.22;5095286;28;20301;-84
2023/01/22 01:16:10;;;;;;;34.97;15.67;;;;;;;-3.36;100.00;103163.84;5071833;28;21026;-84
2023/01/22 01:18:36;;;;;;;55.60;43.07;;;;;;;-3.47;100.00;103166.09;5092984;28;20282;-84
2023/01/22 01:21:03;;;;;;;56.23;42.30;;;;;;;-3.47;100.00;103174.03;5096786;28;20297;-84
2023/01/22 01:23:29;;;;;;;55.20;42.77;;;;;;;-3.34;100.00;103169.97;5094270;28;20402;-84
2023/01/22 01:25:55;;;;;;;54.60;42.30;;;;;;;-3.42;100.00;103172.94;5100454;28;20803;-84
2023/01/22 01:28:21;;;;;;;53.93;41.73;;;;;;;-3.40;100.00;103172.84;5094912;28;20282;-84
2023/01/22 01:30:47;;;;;;;54.43;42.10;;;;;;;-3.55;100.00;103169.03;5095278;28;20065;-83
2023/01/22 01:33:12;;;;;;;53.23;41.37;;;;;;;-3.62;100.00;103159.63;5096479;28;20372;-84
2023/01/22 01:35:38;;;;;;;50.70;40.93;;;;;;;-3.63;100.00;103165.84;5094349;28;20108;-84
2023/01/22 01:38:04;;;;;;;52.33;41.20;;;;;;;-3.68;100.00;103167.84;5089622;28;20023;-84
2023/01/22 01:40:29;;;;;;;49.07;39.50;;;;;;;-3.68;100.00;103154.59;5087790;28;20039;-84
2023/01/22 01:42:55;;;;;;;52.97;41.50;;;;;;;-3.74;100.00;103156.56;5093155;28;20289;-84
2023/01/22 01:45:29;;;;;;;53.00;40.20;;;;;;;-3.78;100.00;103157.59;5097322;28;20111;-84
2023/01/22 01:48:25;;;;;;;50.03;39.80;;;;;;;-3.73;100.00;103146.81;5100279;28;20032;-84
2023/01/22 01:51:16;;;;;;;50.13;39.47;;;;;;;-3.79;100.00;103144.44;5098980;28;20177;-84
2023/01/22 01:53:44;;;;;;;30.60;14.07;;;;;;;-3.72;100.00;103156.50;5067094;28;20309;-84
2023/01/22 01:56:14;;;;;;;51.13;40.03;;;;;;;-3.88;100.00;103144.78;5093240;28;20290;-84
2023/01/22 01:58:42;;;;;;;50.87;41.37;;;;;;;-3.81;100.00;103135.66;5095305;28;21143;-84
2023/01/22 02:01:14;;;;;;;51.43;41.00;;;;;;;-3.85;100.00;103123.47;5100904;28;20703;-84
2023/01/22 02:03:40;;;;;;;53.93;41.07;;;;;;;-3.71;100.00;103131.72;5089997;28;20696;-84
2023/01/22 02:06:10;;;;;;;33.70;15.80;;;;;;;-3.71;100.00;103125.56;5098645;28;20301;-84
2023/01/22 02:08:35;;;;;;;52.23;40.70;;;;;;;-3.80;100.00;103121.50;5106532;27;20825;-84
2023/01/22 02:11:00;;;;;;;51.57;40.27;;;;;;;-3.82;100.00;103118.91;5076598;28;20332;-84
2023/01/22 02:13:31;;;;;;;53.53;40.40;;;;;;;-3.79;100.00;103112.63;5097769;28;20090;-84
2023/01/22 02:15:56;;;;;;;53.63;42.00;;;;;;;-3.79;100.00;103108.19;5092032;28;20024;-84
2023/01/22 02:18:21;;;;;;;54.30;41.70;;;;;;;-3.77;100.00;103113.41;5095362;28;20297;-84
2023/01/22 02:20:56;;;;;;;33.43;15.13;;;;;;;-3.74;100.00;103118.59;5100443;27;20040;-84
2023/01/22 02:23:22;;;;;;;50.75;39.30;;;;;;;-3.82;100.00;103126.88;5096774;28;20474;-84
2023/01/22 02:25:48;;;;;;;50.27;40.63;;;;;;;-3.84;100.00;103119.91;5095244;28;20076;-84
2023/01/22 02:28:13;;;;;;;33.07;14.93;;;;;;;-3.75;100.00;103122.19;5082027;28;20371;-84
2023/01/22 02:30:39;;;;;;;50.73;39.27;;;;;;;-3.69;100.00;103123.72;5078964;28;20043;-84
2023/01/22 02:33:04;;;;;;;33.20;14.70;;;;;;;-3.67;100.00;103128.03;5100819;28;20114;-84
2023/01/22 02:35:30;;;;;;;30.47;14.10;;;;;;;-3.65;100.00;103114.72;5100485;28;20038;-84
2023/01/22 02:37:55;;;;;;;46.80;38.53;;;;;;;-3.65;100.00;103120.88;5088936;28;20537;-84
2023/01/22 02:40:21;;;;;;;49.23;39.47;;;;;;;-3.64;100.00;103127.03;5094881;28;20082;-84
2023/01/22 02:42:46;;;;;;;47.73;38.40;;;;;;;-3.50;100.00;103124.66;5086881;28;20479;-84
2023/01/22 02:45:11;;;;;;;47.13;39.20;;;;;;;-3.51;100.00;103125.59;5080543;28;20115;-84
2023/01/22 02:47:37;;;;;;;46.57;38.40;;;;;;;-3.45;100.00;103127.16;5096690;28;20104;-84
2023/01/22 02:50:03;;;;;;;45.43;38.10;;;;;;;-3.43;100.00;103131.47;5093985;28;20032;-84
2023/01/22 02:52:29;;;;;;;45.90;38.10;;;;;;;-3.35;100.00;103128.47;5093477;28;20023;-84
2023/01/22 02:54:54;;;;;;;45.90;37.27;;;;;;;-3.30;100.00;103133.59;5097629;28;20654;-84
2023/01/22 02:57:20;;;;;;;44.33;37.20;;;;;;;-3.22;100.00;103129.69;5090717;28;20023;-84
2023/01/22 02:59:45;;;;;;;47.73;38.73;;;;;;;-3.24;100.00;103134.22;5080164;28;20016;-84
2023/01/22 03:02:10;;;;;;;47.10;38.07;;;;;;;-3.19;100.00;103136.66;5074774;28;20111;-83
2023/01/22 03:04:36;;;;;;;47.37;38.43;;;;;;;-3.17;100.00;103133.94;5095864;28;20027;-84
2023/01/22 03:07:01;;;;;;;45.27;37.37;;;;;;;-3.07;100.00;103133.47;5093191;28;20080;-85
2023/01/22 03:09:26;;;;;;;44.80;37.50;;;;;;;-3.06;100.00;103129.00;5075408;28;20070;-90
2023/01/22 03:11:52;;;;;;;43.03;36.33;;;;;;;-3.05;100.00;103136.06;5078948;28;20102;-90
2023/01/22 03:22:30;;;;;;;42.30;35.67;;;;;;;-2.82;100.00;103113.81;5098393;28;20328;-90
2023/01/22 03:24:57;;;;;;;42.63;36.07;;;;;;;-2.79;100.00;103121.66;5078395;28;20320;-90
2023/01/22 03:27:25;;;;;;;41.17;35.43;;;;;;;-2.68;100.00;103123.81;5079845;28;20036;-90
2023/01/22 03:29:50;;;;;;;40.20;34.53;;;;;;;-2.70;100.00;103120.38;5092999;28;20304;-91
2023/01/22 03:32:16;;;;;;;38.97;34.03;;;;;;;-2.60;100.00;103111.09;5096988;28;20285;-89
2023/01/22 03:34:42;;;;;;;39.53;34.53;;;;;;;-2.64;100.00;103109.50;5061487;28;20058;-90
2023/01/22 03:37:11;;;;;;;38.83;33.80;;;;;;;-2.64;100.00;103116.59;5063064;28;20024;-91
2023/01/22 03:39:37;;;;;;;38.10;32.87;;;;;;;-2.60;100.00;103105.78;5102105;28;20031;-91
2023/01/22 03:42:02;;;;;;;36.27;32.13;;;;;;;-2.56;100.00;103101.16;5077549;28;20349;-90
2023/01/22 03:44:28;;;;;;;35.17;31.27;;;;;;;-2.64;100.00;103093.56;5091916;28;20024;-91
2023/01/22 03:46:53;;;;;;;36.63;31.87;;;;;;;-2.76;100.00;103083.50;5097014;28;20036;-90
2023/01/22 03:49:18;;;;;;;36.03;31.43;;;;;;;-2.89;100.00;103088.50;5078640;28;20059;-90
2023/01/22 03:51:44;;;;;;;35.80;31.77;;;;;;;-2.90;100.00;103087.66;5084645;28;20032;-90
2023/01/22 03:54:14;;;;;;;34.90;31.10;;;;;;;-2.82;100.00;103089.09;5079665;28;20064;-91
2023/01/22 03:56:40;;;;;;;34.53;30.83;;;;;;;-2.80;100.00;103093.41;5092623;28;20028;-91
2023/01/22 03:59:07;;;;;;;34.47;30.70;;;;;;;-2.77;100.00;103085.28;5097448;28;20302;-91
2023/01/22 04:01:33;;;;;;;34.87;31.13;;;;;;;-2.68;100.00;103089.31;5088372;28;20310;-91
2023/01/22 04:03:58;;;;;;;35.90;30.57;;;;;;;-2.63;100.00;103084.66;5101377;28;20288;-92
2023/01/22 04:06:24;;;;;;;34.53;30.53;;;;;;;-2.65;100.00;103078.56;5099588;28;20282;-92
2023/01/22 04:08:53;;;;;;;34.93;30.00;;;;;;;-2.55;100.00;103092.28;5106401;28;20486;-90
2023/01/22 04:11:19;;;;;;;35.13;30.10;;;;;;;-2.49;100.00;103088.47;5096575;28;20036;-91
2023/01/22 04:13:45;;;;;;;35.17;29.47;;;;;;;-2.44;100.00;103081.16;5094932;28;20296;-91
2023/01/22 04:16:12;;;;;;;34.80;30.33;;;;;;;-2.38;100.00;103078.22;5097133;28;20277;-91
2023/01/22 04:18:38;;;;;;;34.03;30.33;;;;;;;-2.33;100.00;103080.66;5095846;28;21707;-91
2023/01/22 04:21:04;;;;;;;36.33;30.30;;;;;;;-2.31;100.00;103092.94;5094382;28;20286;-84
2023/01/22 04:23:30;;;;;;;33.70;29.53;;;;;;;-2.28;100.00;103090.13;5081057;28;20027;-84
2023/01/22 04:25:55;;;;;;;35.17;29.53;;;;;;;-2.18;100.00;103089.69;5097849;28;20289;-84
2023/01/22 04:28:21;;;;;;;34.00;29.93;;;;;;;-2.21;100.00;103080.94;5097492;28;20523;-84
2023/01/22 04:30:49;;;;;;;33.97;29.00;;;;;;;-2.17;100.00;103079.00;5074637;28;20032;-84
2023/01/22 04:33:15;;;;;;;33.03;28.93;;;;;;;-2.14;100.00;103072.69;5091834;28;20171;-84
2023/01/22 04:35:41;;;;;;;34.40;29.63;;;;;;;-2.06;100.00;103082.00;5081762;28;21363;-84
2023/01/22 04:38:10;;;;;;;31.70;27.13;;;;;;;-2.04;100.00;103087.22;5098040;28;20499;-84
2023/01/22 04:40:35;;;;;;;30.63;26.63;;;;;;;-2.13;100.00;103082.38;5094626;28;20352;-83
2023/01/22 04:43:05;;;;;;;29.37;26.17;;;;;;;-2.12;100.00;103089.41;5092706;28;20293;-91
2023/01/22 04:45:31;;;;;;;30.67;26.37;;;;;;;-2.05;100.00;103074.91;5096228;28;20070;-90
2023/01/22 04:47:57;;;;;;;30.07;25.77;;;;;;;-2.06;100.00;103076.69;5091690;28;20369;-91
2023/01/22 04:50:26;;;;;;;31.90;27.20;;;;;;;-2.01;100.00;103067.63;5059820;28;20850;-84
2023/01/22 04:52:52;;;;;;;31.13;26.57;;;;;;;-2.04;100.00;103074.81;5092308;28;20031;-84
2023/01/22 04:55:18;;;;;;;30.03;26.47;;;;;;;-2.02;100.00;103080.06;5096284;28;20792;-84
2023/01/22 04:57:44;;;;;;;31.20;26.63;;;;;;;-1.99;100.00;103084.38;5100554;28;20316;-84
2023/01/22 05:00:10;;;;;;;29.87;26.40;;;;;;;-1.95;100.00;103072.66;5095478;28;20161;-84
2023/01/22 05:02:36;;;;;;;30.03;26.53;;;;;;;-2.07;100.00;103087.38;5078095;28;20421;-84
2023/01/22 05:05:02;;;;;;;29.23;25.83;;;;;;;-1.99;100.00;103082.56;5097975;28;20308;-84
2023/01/22 05:07:28;;;;;;;29.27;25.20;;;;;;;-2.03;100.00;103091.63;5092334;28;20382;-84
2023/01/22 05:09:53;;;;;;;30.13;26.03;;;;;;;-2.03;100.00;103083.66;5097920;28;20795;-84
2023/01/22 05:12:18;;;;;;;27.97;24.97;;;;;;;-2.02;100.00;103081.88;5099171;28;20038;-84
2023/01/22 05:14:44;;;;;;;30.43;26.63;;;;;;;-1.98;100.00;103083.44;5060669;28;20020;-84
2023/01/22 05:17:09;;;;;;;27.73;24.73;;;;;;;-1.95;100.00;103081.47;5079517;28;20110;-84
2023/01/22 05:19:36;;;;;;;28.73;25.47;;;;;;;-1.96;100.00;103076.25;5095744;28;20039;-84
2023/01/22 05:22:01;;;;;;;28.77;24.83;;;;;;;-1.98;100.00;103078.97;5081814;28;20043;-84
2023/01/22 05:24:27;;;;;;;26.80;23.90;;;;;;;-1.93;100.00;103068.09;5100483;28;20289;-84
2023/01/22 05:26:52;;;;;;;27.57;24.17;;;;;;;-1.95;100.00;103078.81;5073121;28;20099;-84
2023/01/22 05:29:18;;;;;;;28.07;23.40;;;;;;;-1.90;100.00;103084.78;5064263;28;20028;-84
2023/01/22 05:31:43;;;;;;;25.93;22.67;;;;;;;-1.88;100.00;103090.88;5088736;28;20065;-84
2023/01/22 05:34:09;;;;;;;26.70;23.67;;;;;;;-1.84;100.00;103090.72;5098988;28;20136;-85
2023/01/22 05:36:34;;;;;;;26.87;23.43;;;;;;;-1.81;100.00;103090.56;5077855;28;20030;-84
2023/01/22 05:39:00;;;;;;;27.43;23.87;;;;;;;-1.82;100.00;103099.47;5081784;28;20085;-91
2023/01/22 05:41:25;;;;;;;26.77;22.67;;;;;;;-1.80;100.00;103100.28;5084616;28;20031;-91
2023/01/22 05:43:50;;;;;;;25.93;23.10;;;;;;;-1.80;100.00;103095.81;5099586;28;20039;-91
2023/01/22 05:46:16;;;;;;;26.57;23.67;;;;;;;-1.80;100.00;103100.28;5095832;28;20067;-91
2023/01/22 05:48:41;;;;;;;27.73;24.37;;;;;;;-1.89;100.00;103094.47;5085874;28;20690;-92
2023/01/22 05:51:07;;;;;;;25.67;22.83;;;;;;;-1.81;100.00;103104.75;5094555;28;20039;-84
2023/01/22 05:53:33;;;;;;;27.07;24.17;;;;;;;-1.82;100.00;103102.13;5091359;28;20058;-84
2023/01/22 05:56:04;;;;;;;27.43;24.43;;;;;;;-1.80;100.00;103106.44;5093097;28;20111;-84
2023/01/22 05:58:30;;;;;;;27.27;24.30;;;;;;;-1.82;100.00;103105.66;5093064;28;20308;-84
2023/01/22 06:00:57;;;;;;;27.50;24.10;;;;;;;-1.79;100.00;103104.66;5094280;28;20282;-84
2023/01/22 06:03:22;;;;;;;27.43;24.07;;;;;;;-1.74;100.00;103107.94;5093480;28;20291;-84
2023/01/22 06:06:09;;;;;;;27.50;24.60;;;;;;;-1.78;100.00;103114.34;5073015;28;20317;-84
2023/01/22 06:08:35;;;;;;;28.13;24.77;;;;;;;-1.79;100.00;103104.66;5092881;28;20023;-84
2023/01/22 06:11:10;;;;;;;28.07;25.07;;;;;;;-1.83;100.00;103101.28;5095021;28;20665;-84
2023/01/22 06:13:36;;;;;;;28.17;24.70;;;;;;;-1.76;100.00;103101.84;5098585;28;20479;-84
2023/01/22 06:16:01;;;;;;;28.60;24.50;;;;;;;-1.77;100.00;103102.78;5078300;28;20277;-84
2023/01/22 06:18:27;;;;;;;28.20;25.20;;;;;;;-1.77;100.00;103095.69;5076440;28;20046;-84
2023/01/22 06:20:57;;;;;;;28.07;25.07;;;;;;;-1.73;100.00;103105.22;5104165;28;21986;-84
2023/01/22 06:23:24;;;;;;;27.80;24.77;;;;;;;-1.73;100.00;103107.00;5099809;28;20383;-84
2023/01/22 06:25:54;;;;;;;28.70;25.67;;;;;;;-1.72;100.00;103108.72;5088712;28;20395;-84
2023/01/22 06:28:21;;;;;;;28.03;24.30;;;;;;;-1.71;100.00;103110.47;5098020;28;20754;-84
2023/01/22 06:30:46;;;;;;;27.90;24.90;;;;;;;-1.75;100.00;103108.88;5093103;28;20290;-91
2023/01/22 06:33:12;;;;;;;27.93;24.93;;;;;;;-1.69;100.00;103100.59;5089195;28;20301;-92
2023/01/22 06:35:37;;;;;;;27.93;24.93;;;;;;;-1.67;100.00;103105.84;5083275;28;20160;-91
2023/01/22 06:38:03;;;;;;;27.70;24.53;;;;;;;-1.75;100.00;103098.25;5101517;28;20028;-92
2023/01/22 06:40:28;;;;;;;27.20;24.33;;;;;;;-1.66;100.00;103103.09;5096586;28;20040;-92
2023/01/22 06:42:54;;;;;;;28.10;25.03;;;;;;;-1.61;100.00;103098.41;5077242;28;20028;-90
2023/01/22 06:45:19;;;;;;;27.27;24.30;;;;;;;-1.61;100.00;103095.75;5062926;28;20970;-84
2023/01/22 06:47:45;;;;;;;26.83;24.00;;;;;;;-1.60;100.00;103113.44;5091555;28;20052;-84
2023/01/22 06:50:11;;;;;;;28.20;24.80;;;;;;;-1.57;100.00;103107.97;5092103;28;20035;-84
2023/01/22 06:52:37;;;;;;;27.63;24.63;;;;;;;-1.59;100.00;103114.28;5090059;28;20023;-84
2023/01/22 06:55:03;;;;;;;27.37;23.97;;;;;;;-1.56;100.00;103112.34;5072133;28;20293;-84
2023/01/22 06:57:28;;;;;;;27.50;24.57;;;;;;;-1.50;100.00;103113.84;5093290;28;20028;-84
2023/01/22 06:59:53;;;;;;;26.73;23.53;;;;;;;-1.49;100.00;103115.56;5092899;28;20027;-84
2023/01/22 07:02:19;;;;;;;27.60;24.67;;;;;;;-1.53;100.00;103124.63;5092114;28;20040;-84
2023/01/22 07:04:44;;;;;;;27.27;24.27;;;;;;;-1.55;100.00;103116.75;5093208;28;20019;-85
2023/01/22 07:07:10;;;;;;;27.30;24.30;;;;;;;-1.45;100.00;103122.44;5106517;27;20029;-84
2023/01/22 07:09:36;;;;;;;27.37;24.37;;;;;;;-1.55;100.00;103119.41;5088509;28;20411;-84
2023/01/22 07:12:01;;;;;;;27.30;24.30;;;;;;;-1.49;100.00;103125.34;5078347;28;20114;-84
2023/01/22 07:14:29;;;;;;;27.47;24.53;;;;;;;-1.61;100.00;103116.19;5093425;28;20062;-84
2023/01/22 07:16:55;;;;;;;26.87;23.77;;;;;;;-1.55;100.00;103118.50;5093191;28;20016;-84
2023/01/22 07:19:20;;;;;;;27.33;24.40;;;;;;;-1.58;100.00;103106.25;5092400;28;20788;-84
2023/01/22 07:21:45;;;;;;;27.20;24.30;;;;;;;-1.58;100.00;103114.25;5093717;28;20074;-84
2023/01/22 07:24:11;;;;;;;27.03;24.13;;;;;;;-1.67;100.00;103116.47;5056762;28;20037;-84
2023/01/22 07:26:37;;;;;;;26.77;23.87;;;;;;;-1.63;100.00;103116.25;5091790;28;20425;-84
2023/01/22 07:29:03;;;;;;;27.30;23.97;;;;;;;-1.62;100.00;103118.00;5095538;28;20077;-85
2023/01/22 07:31:29;;;;;;;25.80;23.00;;;;;;;-1.56;100.00;103119.47;5074353;28;21748;-84
2023/01/22 07:33:54;;;;;;;26.13;23.30;;;;;;;-1.62;100.00;103118.00;5093596;28;20039;-84
2023/01/22 07:36:19;;;;;;;27.77;24.73;;;;;;;-1.65;100.00;103119.94;5076223;28;20077;-84
2023/01/22 07:38:45;;;;;;;25.50;22.80;;;;;;;-1.58;100.00;103116.00;5084046;28;20086;-85
2023/01/22 07:41:10;;;;;;;26.50;23.30;;;;;;;-1.60;100.00;103124.06;5093118;28;20089;-84
2023/01/22 07:43:35;;;;;;;25.37;22.67;;;;;;;-1.49;100.00;103128.00;5095875;28;20034;-84
2023/01/22 07:46:02;;;;;;;24.73;21.83;;;;;;;-1.46;100.00;103130.50;5075115;28;20028;-84
2023/01/22 07:48:28;;;;;;;25.50;22.67;;;;;;;-1.54;100.00;103121.13;5077868;28;20380;-84
2023/01/22 07:50:56;;;;;;;24.03;21.53;;;;;;;-1.47;100.00;103119.03;5089669;28;20274;-91
2023/01/22 07:53:22;;;;;;;24.33;21.73;;;;;;;-1.46;100.00;103120.72;5094237;28;20032;-90
2023/01/22 07:55:47;;;;;;;23.73;21.20;;;;;;;-1.45;100.00;103127.78;5075919;28;21265;-90
2023/01/22 07:58:13;;;;;;;24.50;21.80;;;;;;;-1.38;100.00;103123.84;5093147;28;20531;-91
2023/01/22 08:00:38;;;;;;;25.37;21.53;;;;;;;-1.33;100.00;103142.25;5067475;28;20499;-90
2023/01/22 08:03:04;;;;;;;25.03;21.80;;;;;;;-1.36;100.00;103137.94;5077867;28;20055;-91
2023/01/22 08:05:30;;;;;;;24.00;21.47;;;;;;;-1.39;100.00;103137.22;5079598;28;20702;-92
2023/01/22 08:07:55;;;;;;;24.03;21.03;;;;;;;-1.34;100.00;103134.34;5090749;28;20311;-92
2023/01/22 08:10:21;;;;;;;24.03;21.43;;;;;;;-1.37;100.00;103146.84;5092820;28;20023;-91
2023/01/22 08:12:46;;;;;;;23.90;20.87;;;;;;;-1.28;100.00;103140.22;5079582;28;20032;-91
2023/01/22 08:15:13;;;;;;;23.77;20.60;;;;;;;-1.23;100.00;103140.00;5095825;28;20028;-91
2023/01/22 08:17:38;;;;;;;23.47;20.50;;;;;;;-1.23;100.00;103142.66;5095491;28;20058;-91
2023/01/22 08:20:05;;;;;;;28.57;25.57;;;;;;;-1.19;100.00;103147.72;5074526;28;20309;-90
2023/01/22 08:22:30;;;;;;;26.87;24.00;;;;;;;-1.17;100.00;103147.63;5081175;28;20054;-91
2023/01/22 08:24:56;;;;;;;24.57;21.63;;;;;;;-1.23;100.00;103143.50;5082829;28;20285;-92
2023/01/22 08:27:21;;;;;;;24.67;22.20;;;;;;;-1.16;100.00;103144.03;5070289;28;20158;-90
2023/01/22 08:29:48;;;;;;;26.30;23.60;;;;;;;-1.12;100.00;103142.94;5093239;28;20035;-91
2023/01/22 08:32:15;;;;;;;24.03;21.40;;;;;;;-1.07;100.00;103164.03;5094288;28;20114;-90
2023/01/22 08:34:40;;;;;;;21.47;18.37;;;;;;;-1.16;100.00;103159.16;5086075;28;20420;-91
2023/01/22 08:37:06;;;;;;;23.70;20.27;;;;;;;-1.14;100.00;103159.94;5078129;28;20282;-84
2023/01/22 08:39:31;;;;;;;25.93;23.23;;;;;;;-1.05;100.00;103151.47;5073727;28;20498;-84
2023/01/22 08:41:57;;;;;;;27.97;24.97;;;;;;;-1.02;100.00;103156.63;5096674;28;20039;-84
2023/01/22 08:44:23;;;;;;;22.83;19.90;;;;;;;-0.99;100.00;103147.63;5074883;28;20524;-84
2023/01/22 08:46:49;;;;;;;21.23;18.03;;;;;;;-1.01;100.00;103147.72;5097002;28;20290;-84
2023/01/22 08:49:15;;;;;;;22.07;19.70;;;;;;;-1.00;100.00;103154.78;5089073;28;20058;-84
2023/01/22 08:51:41;;;;;;;22.70;19.93;;;;;;;-0.95;100.00;103138.56;5079701;28;20024;-85
2023/01/22 08:54:06;;;;;;;23.17;20.83;;;;;;;-0.91;100.00;103153.44;5096416;28;20668;-85
2023/01/22 08:56:31;;;;;;;23.63;20.17;;;;;;;-0.90;100.00;103153.38;5076960;28;20198;-91
2023/01/22 08:58:59;;;;;;;22.47;20.03;;;;;;;-0.88;100.00;103156.81;5086243;28;20024;-85
2023/01/22 09:01:25;;;;;;;22.50;19.10;;;;;;;-0.92;100.00;103159.72;5094877;28;20472;-84
2023/01/22 09:03:50;;;;;;;20.77;17.07;;;;;;;-1.00;100.00;103162.75;5100016;28;20301;-85
2023/01/22 09:06:16;;;;;;;22.50;19.63;;;;;;;-0.94;100.00;103164.25;5096922;28;20020;-84
2023/01/22 09:08:41;;;;;;;21.37;18.23;;;;;;;-0.96;100.00;103160.81;5104099;28;20062;-85
2023/01/22 09:11:07;;;;;;;22.50;17.67;;;;;;;-0.94;100.00;103167.78;5099630;28;20032;-84
2023/01/22 09:13:32;;;;;;;23.63;20.90;;;;;;;-1.00;100.00;103160.09;5062525;28;20028;-84
2023/01/22 09:15:58;;;;;;;36.17;33.07;;;;;;;-0.92;100.00;103165.88;5100589;28;20024;-90
2023/01/22 09:18:24;;;;;;;40.33;36.93;;;;;;;-0.93;100.00;103158.84;5102926;28;20369;-90
2023/01/22 09:20:49;;;;;;;22.73;20.23;;;;;;;-0.93;100.00;103164.16;5093826;28;20016;-92
2023/01/22 09:23:15;;;;;;;22.03;19.73;;;;;;;-1.06;100.00;103150.63;5105781;28;20118;-91
2023/01/22 09:25:40;;;;;;;22.23;18.80;;;;;;;-1.02;100.00;103161.97;5082593;28;20035;-91
2023/01/22 09:28:08;;;;;;;22.20;19.30;;;;;;;-0.96;100.00;103172.31;5100999;28;20499;-85
2023/01/22 09:30:34;;;;;;;23.30;20.67;;;;;;;-0.99;100.00;103163.59;5108737;28;20027;-85
2023/01/22 09:33:01;;;;;;;23.30;20.80;;;;;;;-0.94;100.00;103159.78;5098089;28;20327;-90
2023/01/22 09:35:27;;;;;;;23.10;19.17;;;;;;;-0.93;100.00;103166.81;5100569;28;20313;-91
2023/01/22 09:37:53;;;;;;;20.47;18.00;;;;;;;-0.96;100.00;103172.31;5086793;28;20297;-92
2023/01/22 09:40:26;;;;;;;21.53;17.87;;;;;;;-0.93;100.00;103169.47;5101063;28;20350;-91
2023/01/22 09:42:59;;;;;;;21.23;18.57;;;;;;;-0.76;100.00;103170.41;5090361;28;20283;-91
2023/01/22 09:45:25;;;;;;;22.10;19.67;;;;;;;-0.63;100.00;103168.81;5091409;28;20652;-90
2023/01/22 09:47:57;;;;;;;23.43;20.93;;;;;;;-0.68;100.00;103181.50;5094433;28;20294;-92
2023/01/22 09:50:26;;;;;;;22.10;19.80;;;;;;;-0.70;100.00;103184.25;5100256;28;21338;-91
2023/01/22 09:52:56;;;;;;;28.90;25.97;;;;;;;-0.61;100.00;103185.59;5094468;28;20769;-91
2023/01/22 09:55:26;;;;;;;21.73;19.43;;;;;;;-0.60;100.00;103178.44;5097694;28;22132;-90
2023/01/22 09:57:54;;;;;;;21.03;17.93;;;;;;;-0.65;100.00;103181.38;5098887;28;20373;-85
2023/01/22 10:00:26;;;;;;;21.40;17.20;;;;;;;-0.60;100.00;103184.66;5100523;28;20765;-85
2023/01/22 10:03:00;;;;;;;20.50;17.60;;;;;;;-0.56;100.00;103174.69;5099095;28;20350;-85
2023/01/22 10:05:30;;;;;;;19.63;17.02;;;;;;;-0.52;100.00;103178.91;5098814;28;20297;-85
2023/01/22 10:08:20;;;;;;;21.47;18.20;;;;;;;-0.43;100.00;103182.91;5094576;28;20024;-91
2023/01/22 10:10:46;;;;;;;19.67;17.57;;;;;;;-0.45;100.00;103176.78;5088079;28;20653;-92
2023/01/22 10:13:36;;;;;;;20.47;16.97;;;;;;;-0.46;100.00;103180.38;5071332;28;20293;-90
2023/01/22 10:16:02;;;;;;;18.87;15.80;;;;;;;-0.48;100.00;103183.13;5097310;28;20281;-92
2023/01/22 10:18:36;;;;;;;19.20;16.20;;;;;;;-0.60;100.00;103187.31;5097562;28;20296;-91
2023/01/22 10:21:05;;;;;;;19.45;15.68;;;;;;;-0.54;100.00;103184.31;5083737;28;20290;-92
2023/01/22 10:23:33;;;;;;;21.03;16.77;;;;;;;-0.56;100.00;103194.22;5099888;28;20491;-91
2023/01/22 10:26:24;;;;;;;18.60;16.17;;;;;;;-0.52;100.00;103186.91;5093155;28;20362;-92
2023/01/22 10:28:56;;;;;;;22.53;20.23;;;;;;;-0.51;100.00;103167.31;5091298;28;20385;-92
2023/01/22 10:31:34;;;;;;;20.67;16.37;;;;;;;-0.48;100.00;103179.63;5090818;28;20290;-91
2023/01/22 10:34:15;;;;;;;18.33;15.50;;;;;;;-0.53;100.00;103180.72;5100405;28;20281;-91
2023/01/22 10:36:48;;;;;;;17.77;15.67;;;;;;;-0.52;100.00;103178.91;5096388;28;20282;-92
2023/01/22 10:39:15;;;;;;;18.70;16.17;;;;;;;-0.57;100.00;103173.84;5090075;28;20781;-91
2023/01/22 10:41:42;;;;;;;18.23;15.97;;;;;;;-0.49;100.00;103181.44;5092767;28;20290;-91
2023/01/22 10:44:24;;;;;;;19.93;15.93;;;;;;;-0.52;100.00;103177.13;5089959;28;20290;-91
2023/01/22 10:46:51;;;;;;;19.43;16.17;;;;;;;-0.51;100.00;103189.47;5094321;28;20403;-91
2023/01/22 10:49:22;;;;;;;19.50;15.83;;;;;;;-0.52;100.00;103179.78;5077937;28;20312;-91
2023/01/22 10:51:58;;;;;;;18.23;15.47;;;;;;;-0.48;100.00;103172.47;5097294;28;20799;-91
2023/01/22 10:54:34;;;;;;;16.90;14.80;;;;;;;-0.48;100.00;103182.28;5094557;28;20289;-85
2023/01/22 10:57:25;;;;;;;18.70;15.00;;;;;;;-0.46;100.00;103186.59;5091817;28;20282;-85
2023/01/22 11:00:04;;;;;;;18.20;14.83;;;;;;;-0.45;100.00;103179.44;5090009;28;20386;-85
2023/01/22 11:02:30;;;;;;;17.57;14.93;;;;;;;-0.44;100.00;103178.50;5094745;28;20795;-85
2023/01/22 11:05:13;;;;;;;18.97;14.83;;;;;;;-0.54;100.00;103179.00;5095074;28;20281;-85
2023/01/22 11:07:40;;;;;;;18.53;16.53;;;;;;;-0.57;100.00;103176.50;5091374;28;21312;-85
2023/01/22 11:10:17;;;;;;;18.63;16.63;;;;;;;-0.58;100.00;103177.44;5091262;28;20355;-85
2023/01/22 11:12:48;;;;;;;20.27;18.03;;;;;;;-0.54;100.00;103173.66;5077820;28;20285;-91